Time;durP1;ratioP1;P1;durP2;ratioP2;P2;SDS_P1;SDS_P2;PMS_P1;PMS_P2;Temp;Humidity;BMP_temperature;BMP_pressure;BME280_temperature;BME280_humidity;BME280_pressure;Samples;Min_cycle;Max_cycle;Signal;HPM_P1;HPM_P2
2023/04/28 00:00:47;;;;;;;11.87;5.30;;;;;;;6.87;67.59;94857.81;5052514;28;20327;-79
2023/04/28 00:03:14;;;;;;;9.07;5.70;;;;;;;6.83;68.05;94859.97;5053985;28;20644;-79
2023/04/28 00:05:41;;;;;;;14.23;5.57;;;;;;;6.83;67.75;94858.19;5052001;28;20284;-79
2023/04/28 00:08:09;;;;;;;9.93;4.90;;;;;;;6.83;67.85;94854.81;5051523;28;20198;-79
2023/04/28 00:10:38;;;;;;;9.57;4.83;;;;;;;6.75;67.70;94853.16;5052077;28;20260;-79
2023/04/28 00:13:05;;;;;;;9.03;4.97;;;;;;;6.65;68.27;94855.28;5053212;28;20201;-79
2023/04/28 00:15:32;;;;;;;8.07;4.07;;;;;;;6.60;68.28;94857.66;5051380;28;20205;-79
2023/04/28 00:17:59;;;;;;;6.23;4.33;;;;;;;6.52;68.91;94859.56;5055506;28;20655;-80
2023/04/28 00:20:26;;;;;;;8.40;4.17;;;;;;;6.50;68.93;94856.34;5055685;28;20190;-79
2023/04/28 00:22:53;;;;;;;9.27;4.30;;;;;;;6.43;69.27;94856.34;5055357;28;20202;-80
2023/04/28 00:25:21;;;;;;;6.53;4.73;;;;;;;6.39;69.55;94857.69;5054485;28;20231;-80
2023/04/28 00:27:48;;;;;;;10.43;4.93;;;;;;;6.37;69.52;94857.09;5051280;28;20210;-80
2023/04/28 00:30:15;;;;;;;6.97;4.53;;;;;;;6.34;69.71;94854.88;5051001;28;20212;-80
2023/04/28 00:32:41;;;;;;;6.93;4.10;;;;;;;6.24;69.66;94841.47;5050478;28;20202;-80
2023/04/28 00:35:09;;;;;;;6.37;4.47;;;;;;;6.28;69.71;94865.94;5050056;28;20198;-80
2023/04/28 00:37:37;;;;;;;8.83;4.70;;;;;;;6.23;69.21;94866.47;5050522;28;20225;-79
2023/04/28 00:40:04;;;;;;;8.60;4.50;;;;;;;6.06;70.72;94867.72;5051439;28;20736;-79
2023/04/28 00:42:32;;;;;;;12.00;4.70;;;;;;;5.92;71.51;94867.78;5049918;28;20737;-79
2023/04/28 00:45:04;;;;;;;6.73;4.43;;;;;;;5.88;71.28;94869.94;5053238;28;20232;-80
2023/04/28 00:47:31;;;;;;;8.10;4.20;;;;;;;5.90;71.05;94873.13;5051823;28;20205;-80
2023/04/28 00:49:58;;;;;;;6.00;4.47;;;;;;;5.91;71.96;94879.91;5049989;28;20589;-79
2023/04/28 00:52:25;;;;;;;8.13;4.27;;;;;;;5.91;71.98;94873.94;5055710;28;20678;-80
2023/04/28 00:54:52;;;;;;;6.37;4.50;;;;;;;5.83;72.44;94868.88;5048935;28;20220;-80
2023/04/28 00:57:19;;;;;;;6.83;4.40;;;;;;;5.74;71.88;94863.81;5060789;28;20201;-79
2023/04/28 00:59:47;;;;;;;7.80;4.20;;;;;;;5.87;72.22;94870.91;5050927;28;20216;-78
2023/04/28 01:02:16;;;;;;;7.10;4.30;;;;;;;5.88;72.16;94869.94;5062195;28;20218;-78
2023/04/28 01:04:44;;;;;;;7.87;4.50;;;;;;;5.86;71.87;94882.19;5052704;28;20209;-78
2023/04/28 01:07:12;;;;;;;6.83;4.13;;;;;;;5.90;71.62;94883.44;5057664;28;20282;-77
2023/04/28 01:09:38;;;;;;;6.50;4.27;;;;;;;5.87;72.17;94875.28;5052993;28;20201;-77
2023/04/28 01:12:06;;;;;;;7.27;4.40;;;;;;;5.86;71.84;94884.78;5050596;28;20266;-76
2023/04/28 01:14:33;;;;;;;6.63;4.53;;;;;;;5.86;71.63;94881.44;5055161;28;20259;-77
2023/04/28 01:17:02;;;;;;;7.97;5.00;;;;;;;5.84;71.54;94883.34;5052951;28;20198;-77
2023/04/28 01:19:29;;;;;;;7.20;4.70;;;;;;;5.81;71.71;94881.94;5056103;28;20203;-77
2023/04/28 01:21:56;;;;;;;8.90;4.80;;;;;;;5.83;71.77;94889.50;5057928;28;20288;-76
2023/04/28 01:24:25;;;;;;;9.73;4.93;;;;;;;5.84;71.72;94888.50;5056639;28;20195;-76
2023/04/28 01:26:52;;;;;;;9.80;5.00;;;;;;;5.76;72.41;94883.47;5053325;28;20295;-76
2023/04/28 01:29:19;;;;;;;7.17;4.97;;;;;;;5.71;71.19;94871.91;5059147;28;20204;-76
2023/04/28 01:31:46;;;;;;;8.87;5.17;;;;;;;5.82;71.26;94880.97;5052250;28;20216;-76
2023/04/28 01:34:13;;;;;;;9.70;4.87;;;;;;;5.83;71.49;94884.34;5050504;28;20206;-75
2023/04/28 01:36:40;;;;;;;6.10;4.23;;;;;;;5.73;71.10;94885.44;5056052;28;20204;-75
2023/04/28 01:39:07;;;;;;;9.40;4.47;;;;;;;5.71;71.29;94882.22;5055508;28;20204;-75
2023/04/28 01:41:35;;;;;;;8.93;5.30;;;;;;;5.66;71.91;94876.00;5051700;28;20202;-75
2023/04/28 01:44:02;;;;;;;11.13;4.80;;;;;;;5.68;71.33;94887.72;5057969;28;20201;-75
2023/04/28 01:46:29;;;;;;;7.37;4.47;;;;;;;5.65;71.98;94885.53;5049918;28;20299;-75
2023/04/28 01:48:56;;;;;;;6.57;4.70;;;;;;;5.66;72.20;94886.31;5052133;28;20203;-75
2023/04/28 01:51:23;;;;;;;8.37;4.47;;;;;;;5.63;71.74;94881.53;5057005;28;20663;-75
2023/04/28 01:53:49;;;;;;;7.23;4.77;;;;;;;5.65;71.90;94885.53;5052557;28;20640;-75
2023/04/28 01:56:17;;;;;;;8.30;4.90;;;;;;;5.62;71.73;94891.06;5056838;28;20706;-77
2023/04/28 01:58:45;;;;;;;9.03;5.00;;;;;;;5.62;72.21;94882.53;5054852;28;20204;-75
2023/04/28 02:01:12;;;;;;;6.97;5.20;;;;;;;5.63;72.50;94886.69;5048655;28;20212;-75
2023/04/28 02:03:38;;;;;;;8.63;4.90;;;;;;;5.64;72.19;94890.88;5056448;28;20584;-75
2023/04/28 02:06:06;;;;;;;11.10;5.37;;;;;;;5.62;71.77;94885.09;5053483;28;20278;-75
2023/04/28 02:08:32;;;;;;;7.87;5.03;;;;;;;5.61;72.75;94888.66;5048901;28;20193;-74
2023/04/28 02:11:00;;;;;;;10.77;5.43;;;;;;;5.59;72.84;94894.00;5051282;28;20212;-75
2023/04/28 02:13:27;;;;;;;8.23;4.97;;;;;;;5.40;73.33;94888.59;5052158;28;20229;-75
2023/04/28 02:15:55;;;;;;;7.33;4.93;;;;;;;5.33;74.00;94891.13;5052270;28;20553;-75
2023/04/28 02:18:22;;;;;;;15.17;5.07;;;;;;;5.27;73.86;94884.09;5051161;28;20237;-76
2023/04/28 02:20:49;;;;;;;10.23;5.60;;;;;;;5.28;74.11;94895.22;5036037;22;21011;-76
2023/04/28 02:23:15;;;;;;;8.63;5.37;;;;;;;5.27;74.29;94891.03;5018033;28;20209;-75
2023/04/28 02:25:42;;;;;;;8.67;5.80;;;;;;;5.28;74.02;94897.78;5028986;28;20218;-75
2023/04/28 02:28:09;;;;;;;9.93;5.70;;;;;;;5.35;74.77;94896.06;5029268;28;20297;-75
2023/04/28 02:30:36;;;;;;;8.57;5.70;;;;;;;5.36;74.11;94897.69;5032829;28;20210;-75
2023/04/28 02:33:04;;;;;;;10.80;5.27;;;;;;;5.33;74.48;94896.28;5029213;28;20198;-75
2023/04/28 02:35:31;;;;;;;8.60;5.50;;;;;;;5.33;74.51;94901.41;5031889;28;20261;-75
2023/04/28 02:37:58;;;;;;;8.87;5.53;;;;;;;5.33;73.72;94901.41;5030380;28;20652;-76
2023/04/28 02:40:24;;;;;;;10.47;5.30;;;;;;;5.31;73.81;94902.59;5029376;28;20202;-77
2023/04/28 02:42:51;;;;;;;8.20;5.80;;;;;;;5.34;73.63;94900.41;5025457;28;20202;-77
2023/04/28 02:45:18;;;;;;;11.63;5.90;;;;;;;5.40;74.30;94906.63;5028621;28;20193;-77
2023/04/28 02:47:45;;;;;;;11.03;5.70;;;;;;;5.36;73.91;94905.41;5030915;28;20229;-77
2023/04/28 02:50:13;;;;;;;9.43;6.17;;;;;;;5.41;73.90;94910.81;5031873;28;20201;-77
2023/04/28 02:52:39;;;;;;;9.57;5.53;;;;;;;5.43;74.26;94908.84;5028293;28;20729;-77
2023/04/28 02:55:07;;;;;;;8.63;5.50;;;;;;;5.44;73.51;94908.69;5030073;28;20289;-78
2023/04/28 02:57:34;;;;;;;9.20;5.63;;;;;;;5.45;73.75;94919.81;5035258;28;20205;-77
2023/04/28 03:00:00;;;;;;;11.10;5.50;;;;;;;5.41;72.66;94918.56;5027904;28;20209;-78
2023/04/28 03:02:27;;;;;;;6.30;4.80;;;;;;;5.37;73.07;94922.47;5028011;28;20216;-79
2023/04/28 03:04:54;;;;;;;8.10;4.43;;;;;;;5.35;73.71;94924.41;5031481;28;20204;-79
2023/04/28 03:07:22;;;;;;;9.07;4.80;;;;;;;5.35;72.89;94921.84;5025922;28;20222;-79
2023/04/28 03:09:49;;;;;;;8.47;4.63;;;;;;;5.35;73.14;94919.25;5028644;28;20197;-79
2023/04/28 03:12:16;;;;;;;6.37;4.53;;;;;;;5.36;72.79;94926.84;5026537;28;20450;-80
2023/04/28 03:14:43;;;;;;;11.10;4.83;;;;;;;5.34;73.01;94930.56;5027677;28;20234;-80
2023/04/28 03:17:10;;;;;;;7.33;4.43;;;;;;;5.28;73.70;94926.91;5029513;28;20217;-78
2023/04/28 03:19:36;;;;;;;8.10;4.80;;;;;;;5.33;73.18;94928.97;5028244;28;20206;-79
2023/04/28 03:22:03;;;;;;;9.63;4.77;;;;;;;5.37;73.90;94936.13;5031058;28;20244;-79
2023/04/28 03:24:31;;;;;;;11.03;5.00;;;;;;;5.33;73.37;94931.53;5031933;28;20198;-79
2023/04/28 03:26:58;;;;;;;12.33;5.60;;;;;;;5.35;72.88;94934.72;5035216;28;20225;-78
2023/04/28 03:29:25;;;;;;;10.30;5.80;;;;;;;5.33;72.42;94944.41;5032229;28;20209;-78
2023/04/28 03:31:52;;;;;;;11.50;6.03;;;;;;;5.32;72.78;94953.91;5032343;28;20205;-79
2023/04/28 03:34:19;;;;;;;10.00;5.93;;;;;;;5.35;72.90;94953.56;5032241;28;20202;-79
2023/04/28 03:36:45;;;;;;;10.80;6.43;;;;;;;5.30;72.34;94963.63;5032033;28;20238;-79
2023/04/28 03:39:12;;;;;;;11.27;6.20;;;;;;;5.28;72.53;94962.19;5032353;28;20214;-79
2023/04/28 03:41:40;;;;;;;8.80;5.53;;;;;;;5.31;72.70;94964.41;5031902;28;20272;-79
2023/04/28 03:44:07;;;;;;;13.10;5.80;;;;;;;5.29;72.66;94974.06;5033390;28;20285;-79
2023/04/28 03:46:34;;;;;;;9.23;5.40;;;;;;;5.31;71.88;94975.50;5032367;28;20233;-78
2023/04/28 03:49:01;;;;;;;11.87;5.53;;;;;;;5.32;72.70;94966.81;5031281;28;20305;-78
2023/04/28 03:51:28;;;;;;;11.07;6.40;;;;;;;5.34;72.10;94975.16;5034047;28;20252;-77
2023/04/28 03:53:55;;;;;;;9.97;5.70;;;;;;;5.37;71.91;94981.75;5032480;28;20241;-78
2023/04/28 03:56:21;;;;;;;12.13;6.07;;;;;;;5.09;72.23;94959.16;5031150;28;20199;-80
2023/04/28 03:58:50;;;;;;;11.63;5.90;;;;;;;5.27;72.58;94984.56;5031289;28;20205;-78
2023/04/28 04:01:16;;;;;;;19.10;5.80;;;;;;;5.30;71.78;94991.97;5035280;28;20225;-78
2023/04/28 04:03:43;;;;;;;11.70;6.07;;;;;;;5.35;72.43;94996.56;5031757;28;20213;-80
2023/04/28 04:06:10;;;;;;;9.63;6.13;;;;;;;5.31;71.38;94990.97;5031630;28;20234;-78
2023/04/28 04:08:37;;;;;;;9.77;5.97;;;;;;;5.38;70.79;94991.88;5031988;28;20213;-79
2023/04/28 04:11:04;;;;;;;12.63;5.67;;;;;;;5.33;70.99;95001.09;5031804;28;20197;-79
2023/04/28 04:13:31;;;;;;;8.20;5.73;;;;;;;5.34;72.15;94995.75;5032421;28;20220;-79
2023/04/28 04:15:59;;;;;;;11.00;5.83;;;;;;;5.35;71.25;94996.56;5034539;28;20201;-79
2023/04/28 04:18:26;;;;;;;8.43;5.50;;;;;;;5.39;70.90;95000.41;5031978;28;20194;-78
2023/04/28 04:20:54;;;;;;;11.00;5.83;;;;;;;5.44;71.51;95005.81;5032304;28;20234;-79
2023/04/28 04:23:21;;;;;;;13.87;5.47;;;;;;;5.36;71.17;95004.13;5031987;28;20204;-78
2023/04/28 04:25:48;;;;;;;13.10;5.80;;;;;;;5.36;71.02;95013.63;5031387;28;20565;-79
2023/04/28 04:28:15;;;;;;;8.87;5.27;;;;;;;5.19;71.38;95018.16;5030227;28;20910;-79
2023/04/28 04:30:42;;;;;;;13.80;5.40;;;;;;;4.99;72.68;95004.19;5030448;28;20327;-79
2023/04/28 04:33:10;;;;;;;13.00;4.57;;;;;;;4.92;72.93;95013.56;5028009;28;20197;-78
2023/04/28 04:35:37;;;;;;;10.70;5.10;;;;;;;5.01;72.70;95015.09;5031164;28;20279;-79
2023/04/28 04:38:04;;;;;;;7.40;4.87;;;;;;;5.00;72.61;95018.63;5035034;28;20200;-77
2023/04/28 04:40:31;;;;;;;6.10;4.17;;;;;;;4.91;72.73;94999.88;5035406;28;20203;-79
2023/04/28 04:42:57;;;;;;;7.33;4.30;;;;;;;4.96;72.40;95013.03;5031881;28;20201;-79
2023/04/28 04:45:24;;;;;;;10.97;4.63;;;;;;;5.02;73.10;95019.28;5031392;28;20207;-78
2023/04/28 04:47:52;;;;;;;8.13;4.40;;;;;;;5.07;73.21;95022.94;5032378;28;20221;-77
2023/04/28 04:50:20;;;;;;;7.87;4.73;;;;;;;5.10;72.42;95026.94;5031910;28;20206;-78
2023/04/28 04:52:47;;;;;;;9.30;4.67;;;;;;;5.20;71.98;95032.63;5030874;28;20202;-79
2023/04/28 04:55:13;;;;;;;9.00;4.77;;;;;;;5.28;72.47;95034.34;5031844;28;20236;-78
2023/04/28 04:57:53;;;;;;;8.77;4.80;;;;;;;5.30;71.76;95030.59;5035883;28;20209;-79
2023/04/28 05:00:21;;;;;;;11.43;4.20;;;;;;;5.36;72.27;95035.06;5031596;28;20201;-78
2023/04/28 05:02:47;;;;;;;7.03;4.10;;;;;;;5.46;71.45;95040.72;5031043;28;20779;-81
2023/04/28 05:05:14;;;;;;;6.27;4.43;;;;;;;5.45;71.76;95049.47;5032273;28;20213;-80
2023/04/28 05:07:43;;;;;;;8.93;4.67;;;;;;;5.51;71.42;95040.22;5031243;28;20570;-80
2023/04/28 05:10:11;;;;;;;7.50;4.07;;;;;;;5.58;72.09;95047.06;5028532;28;20212;-80
2023/04/28 05:12:38;;;;;;;6.90;4.77;;;;;;;5.69;72.15;95036.28;5028837;28;20589;-79
2023/04/28 05:15:06;;;;;;;5.60;4.33;;;;;;;5.90;70.61;95040.75;5031532;28;20224;-79
2023/04/28 05:17:33;;;;;;;6.00;4.60;;;;;;;5.92;70.60;95045.72;5030715;28;20572;-79
2023/04/28 05:20:00;;;;;;;8.13;4.90;;;;;;;5.96;70.61;95049.56;5029660;28;20199;-79
2023/04/28 05:22:27;;;;;;;10.07;5.20;;;;;;;6.02;70.59;95051.44;5028703;28;20198;-79
2023/04/28 05:24:55;;;;;;;8.97;4.00;;;;;;;5.88;70.49;95050.47;5029733;28;20580;-79
2023/04/28 05:27:22;;;;;;;9.33;4.27;;;;;;;5.85;71.49;95045.66;5030906;28;20229;-78
2023/04/28 05:29:48;;;;;;;9.37;4.37;;;;;;;5.84;71.33;95048.38;5029480;28;20205;-79
2023/04/28 05:32:15;;;;;;;9.63;5.60;;;;;;;5.84;71.83;95051.75;5029007;28;20586;-78
2023/04/28 05:34:42;;;;;;;9.13;6.83;;;;;;;5.98;71.87;95042.44;5031904;28;20218;-78
2023/04/28 05:37:09;;;;;;;10.93;6.67;;;;;;;6.06;71.10;95042.34;5032176;28;20194;-79
2023/04/28 05:39:36;;;;;;;11.60;6.30;;;;;;;6.17;71.49;95034.94;5035408;28;20278;-79
2023/04/28 05:42:05;;;;;;;8.30;4.67;;;;;;;6.09;69.63;95034.25;5037422;28;20206;-79
2023/04/28 05:44:32;;;;;;;8.83;4.43;;;;;;;6.09;70.28;95035.03;5040107;28;20229;-79
2023/04/28 05:46:59;;;;;;;6.93;4.63;;;;;;;6.16;70.42;95043.66;5029954;28;20199;-80
2023/04/28 05:49:26;;;;;;;6.53;4.30;;;;;;;6.38;68.69;95044.50;5028622;28;20198;-80
2023/04/28 05:51:52;;;;;;;7.80;4.50;;;;;;;6.45;68.84;95042.00;5029348;28;20280;-80
2023/04/28 05:54:20;;;;;;;7.80;5.23;;;;;;;6.35;69.03;95044.06;5032165;28;20638;-80
2023/04/28 05:56:46;;;;;;;11.97;4.53;;;;;;;6.42;69.08;95050.91;5033323;28;20636;-80
2023/04/28 05:59:15;;;;;;;7.73;4.80;;;;;;;6.14;68.41;95019.03;5033129;28;20206;-78
2023/04/28 06:01:42;;;;;;;14.33;4.90;;;;;;;6.35;68.79;95052.59;5028793;28;20321;-76
2023/04/28 06:04:09;;;;;;;9.97;5.07;;;;;;;6.41;68.73;95056.22;5030420;28;20248;-75
2023/04/28 06:06:36;;;;;;;10.57;4.30;;;;;;;6.36;68.81;95049.03;5027707;28;20205;-75
2023/04/28 06:09:03;;;;;;;7.30;4.30;;;;;;;6.34;68.25;95047.63;5029607;28;20221;-75
2023/04/28 06:11:30;;;;;;;9.00;4.67;;;;;;;6.47;68.57;95045.97;5025651;28;20202;-75
2023/04/28 06:13:57;;;;;;;8.43;4.30;;;;;;;6.56;68.84;95052.63;5031245;28;20201;-77
2023/04/28 06:16:25;;;;;;;9.07;4.47;;;;;;;6.65;68.37;95048.94;5032233;28;20681;-77
2023/04/28 06:18:52;;;;;;;7.97;4.20;;;;;;;6.73;67.35;95050.59;5026805;28;20194;-78
2023/04/28 06:21:20;;;;;;;5.60;3.80;;;;;;;6.67;66.95;95046.97;5035125;28;20234;-77
2023/04/28 06:23:47;;;;;;;6.27;4.30;;;;;;;6.64;67.52;95033.63;5034298;28;20284;-77
2023/04/28 06:26:14;;;;;;;7.43;4.17;;;;;;;6.82;67.41;95052.91;5027936;28;20222;-77
2023/04/28 06:28:40;;;;;;;6.50;4.30;;;;;;;6.96;67.06;95053.81;5029291;28;20218;-77
2023/04/28 06:31:07;;;;;;;11.40;4.60;;;;;;;7.07;67.01;95057.69;5032052;28;20202;-77
2023/04/28 06:33:35;;;;;;;7.30;4.33;;;;;;;7.14;66.53;95059.34;5027928;28;20199;-78
2023/04/28 06:39:15;;;;;;;7.70;3.93;;;;;;;7.30;65.06;95050.53;4956799;28;20271;-76
2023/04/28 06:41:42;;;;;;;6.53;3.97;;;;;;;7.34;64.85;95055.13;5027591;28;20203;-78
2023/04/28 06:44:09;;;;;;;8.57;4.57;;;;;;;7.39;64.18;95062.28;5033518;28;20213;-76
2023/04/28 06:46:37;;;;;;;9.07;4.47;;;;;;;7.26;64.39;95032.00;5029285;28;20704;-77
2023/04/28 06:49:05;;;;;;;10.63;4.50;;;;;;;7.21;65.13;95055.03;5029850;28;20257;-77
2023/04/28 06:51:32;;;;;;;6.60;4.00;;;;;;;7.33;64.84;95052.72;5025599;28;20206;-77
2023/04/28 06:53:59;;;;;;;9.73;4.50;;;;;;;7.37;64.33;95051.34;5031561;28;20222;-76
2023/04/28 06:56:26;;;;;;;6.30;4.00;;;;;;;7.43;63.51;95053.19;5031388;28;20199;-77
2023/04/28 06:58:55;;;;;;;6.93;4.50;;;;;;;7.44;63.13;95058.16;5029621;28;20209;-76
2023/04/28 07:01:21;;;;;;;10.43;4.33;;;;;;;7.48;63.58;95042.25;5033208;28;20190;-76
2023/04/28 07:03:48;;;;;;;6.90;4.90;;;;;;;7.52;63.45;95036.53;5037037;28;20193;-77
2023/04/28 07:06:17;;;;;;;8.53;5.30;;;;;;;7.64;62.64;95049.75;5031385;28;20319;-76
2023/04/28 07:08:44;;;;;;;10.27;5.00;;;;;;;7.55;63.31;95043.13;5031071;28;20987;-75
2023/04/28 07:11:10;;;;;;;8.60;4.83;;;;;;;7.65;63.22;95046.94;5033210;28;20191;-75
2023/04/28 07:13:37;;;;;;;8.43;4.87;;;;;;;7.83;61.16;95038.69;5037214;28;20216;-76
2023/04/28 07:16:05;;;;;;;6.23;3.77;;;;;;;7.83;61.27;95031.75;5030590;28;20304;-77
2023/04/28 07:18:32;;;;;;;8.20;4.03;;;;;;;8.03;61.49;95049.94;5031514;28;20260;-76
2023/04/28 07:20:59;;;;;;;11.27;4.43;;;;;;;8.08;60.58;95046.81;5032477;28;20261;-80
2023/04/28 07:23:27;;;;;;;9.30;3.67;;;;;;;8.17;59.71;95046.41;5031970;28;20551;-80
2023/04/28 07:25:53;;;;;;;10.80;3.80;;;;;;;8.17;59.83;95041.25;5029123;28;20198;-80
2023/04/28 07:28:20;;;;;;;9.40;3.83;;;;;;;8.20;60.00;95027.13;5027481;28;20215;-80
2023/04/28 07:30:47;;;;;;;6.87;4.10;;;;;;;8.15;60.08;95040.66;5031735;28;20217;-80
2023/04/28 07:33:14;;;;;;;6.40;3.73;;;;;;;8.22;59.80;95041.47;5030692;28;20292;-79
2023/04/28 07:35:41;;;;;;;8.13;3.87;;;;;;;8.29;60.35;95038.94;5030547;28;20198;-79
2023/04/28 07:38:07;;;;;;;6.40;3.70;;;;;;;8.51;58.53;95036.00;5033794;28;20210;-81
2023/04/28 07:40:36;;;;;;;7.37;3.57;;;;;;;8.49;58.59;95043.19;5038955;28;20648;-80
2023/04/28 07:43:02;;;;;;;5.87;4.00;;;;;;;8.63;59.77;95046.59;5030546;28;20202;-80
2023/04/28 07:45:29;;;;;;;6.47;3.50;;;;;;;8.75;59.73;95052.00;5031238;28;20281;-80
2023/04/28 07:47:56;;;;;;;6.20;3.50;;;;;;;8.90;57.62;95048.25;5030901;28;20218;-80
2023/04/28 07:50:23;;;;;;;4.83;3.47;;;;;;;9.00;55.85;95043.47;5036585;28;20199;-79
2023/04/28 07:52:50;;;;;;;7.97;3.50;;;;;;;9.01;55.03;95036.50;5030713;28;20203;-79
2023/04/28 07:55:17;;;;;;;8.27;3.60;;;;;;;9.02;55.93;95038.09;5030574;28;20219;-79
2023/04/28 07:57:45;;;;;;;7.50;3.60;;;;;;;9.10;55.29;95049.06;5035198;28;20206;-79
2023/04/28 08:00:13;;;;;;;4.87;3.27;;;;;;;9.11;55.52;95042.09;5031337;28;20202;-79
2023/04/28 08:02:40;;;;;;;7.40;4.10;;;;;;;9.14;54.94;95039.09;5032152;28;20199;-79
2023/04/28 08:05:08;;;;;;;8.13;3.33;;;;;;;9.26;55.24;95050.47;5029507;28;20214;-79
2023/04/28 08:07:35;;;;;;;5.70;3.80;;;;;;;9.32;54.95;95041.09;5031780;28;20225;-80
2023/04/28 08:10:02;;;;;;;5.57;3.43;;;;;;;9.34;54.84;95045.09;5030397;28;20684;-80
2023/04/28 08:12:30;;;;;;;6.53;3.50;;;;;;;9.36;55.44;95042.28;5031296;28;20202;-79
2023/04/28 08:14:58;;;;;;;5.03;3.63;;;;;;;9.43;54.10;95037.91;5031270;28;20655;-79
2023/04/28 08:17:25;;;;;;;6.00;3.63;;;;;;;9.43;54.42;95049.06;5031975;28;20209;-76
2023/04/28 08:19:52;;;;;;;5.57;3.27;;;;;;;9.45;54.30;95041.88;5032790;28;20560;-76
2023/04/28 08:22:19;;;;;;;5.47;3.43;;;;;;;9.46;54.19;95027.13;5033416;28;20838;-76
2023/04/28 08:24:46;;;;;;;5.47;3.37;;;;;;;9.64;54.38;95045.44;5032000;28;20307;-77
2023/04/28 08:27:13;;;;;;;4.47;3.47;;;;;;;9.77;55.02;95047.22;5033339;28;20754;-77
2023/04/28 08:29:40;;;;;;;6.10;3.53;;;;;;;9.83;53.60;95039.44;5030924;28;20225;-77
2023/04/28 08:32:08;;;;;;;6.43;3.40;;;;;;;9.89;52.60;95038.63;5032359;28;20203;-77
2023/04/28 08:34:35;;;;;;;6.57;3.07;;;;;;;9.87;53.25;95032.03;5033755;28;20214;-77
2023/04/28 08:37:02;;;;;;;7.47;3.60;;;;;;;9.89;53.50;95036.03;5038028;28;20210;-75
2023/04/28 08:39:30;;;;;;;5.77;3.63;;;;;;;9.93;53.05;95026.81;5034907;28;20289;-76
2023/04/28 08:41:57;;;;;;;9.83;3.30;;;;;;;10.05;54.06;95032.16;5035103;28;20203;-77
2023/04/28 08:44:24;;;;;;;7.13;3.40;;;;;;;10.16;53.54;95036.75;5039551;28;20194;-76
2023/04/28 08:46:56;;;;;;;6.27;3.23;;;;;;;10.31;53.08;95020.91;5034167;28;20206;-81
2023/04/28 08:49:34;;;;;;;5.20;3.00;;;;;;;10.51;54.70;95016.41;5030203;28;20210;-83
2023/04/28 08:52:01;;;;;;;7.20;3.27;;;;;;;10.66;53.95;95016.94;5028678;28;20222;-82
2023/04/28 08:54:31;;;;;;;7.20;3.00;;;;;;;10.81;54.26;95014.84;5029913;28;20206;-84
2023/04/28 08:56:58;;;;;;;4.53;3.20;;;;;;;10.86;53.23;95004.59;5030742;28;20252;-82
2023/04/28 08:59:25;;;;;;;6.77;3.37;;;;;;;11.11;50.56;95023.63;5036064;28;20580;-80
2023/04/28 09:01:52;;;;;;;5.53;3.27;;;;;;;11.19;51.97;95017.38;5030136;28;20207;-82
2023/04/28 09:04:19;;;;;;;7.17;3.40;;;;;;;11.27;50.91;95019.69;5031098;28;20266;-81
2023/04/28 09:06:48;;;;;;;5.40;3.50;;;;;;;11.32;50.08;95023.25;5033762;28;20198;-81
2023/04/28 09:09:23;;;;;;;5.67;3.00;;;;;;;11.37;50.91;95007.78;5029692;28;20231;-83
2023/04/28 09:11:52;;;;;;;8.27;3.70;;;;;;;11.42;49.71;95003.75;5024669;28;20197;-80
2023/04/28 09:14:18;;;;;;;5.00;3.33;;;;;;;11.35;48.19;95015.03;5030301;28;20657;-80
2023/04/28 09:16:45;;;;;;;7.67;3.10;;;;;;;11.43;48.15;95013.94;5029550;28;20211;-81
2023/04/28 09:19:12;;;;;;;5.30;3.20;;;;;;;11.54;47.90;94999.44;5029842;28;20218;-82
2023/04/28 09:21:48;;;;;;;5.83;3.33;;;;;;;11.49;49.09;95002.69;5031448;28;20242;-81
2023/04/28 09:24:29;;;;;;;5.10;3.13;;;;;;;11.66;50.78;94997.72;5029878;28;20202;-80
2023/04/28 09:26:56;;;;;;;5.87;3.10;;;;;;;11.89;50.70;94996.09;5032239;28;20261;-81
2023/04/28 09:29:23;;;;;;;6.87;3.00;;;;;;;12.17;50.20;95000.78;5026958;28;20306;-81
2023/04/28 09:31:50;;;;;;;8.03;3.13;;;;;;;12.41;47.57;95004.28;5031233;28;20273;-81
2023/04/28 09:34:17;;;;;;;6.23;2.90;;;;;;;12.59;47.89;94996.44;5032639;28;20595;-81
2023/04/28 09:36:43;;;;;;;8.23;3.17;;;;;;;12.77;47.61;94996.38;5028992;28;20554;-80
2023/04/28 09:39:11;;;;;;;5.20;2.80;;;;;;;12.80;45.49;94990.72;5028225;28;20190;-80
2023/04/28 09:41:39;;;;;;;6.70;3.00;;;;;;;12.73;45.69;94982.19;5030710;28;20234;-81
2023/04/28 09:44:13;;;;;;;4.97;2.77;;;;;;;12.89;65.63;94971.13;5028481;28;20289;-80
2023/04/28 09:46:41;;;;;;;9.07;3.30;;;;;;;13.03;46.34;94988.16;5028482;28;20609;-76
2023/04/28 09:49:08;;;;;;;7.97;3.23;;;;;;;13.02;44.54;94988.38;5028937;28;20214;-76
2023/04/28 09:51:35;;;;;;;6.30;3.17;;;;;;;13.15;44.61;94977.78;5032691;28;20198;-76
2023/04/28 09:54:04;;;;;;;4.80;3.03;;;;;;;13.38;44.89;94975.19;5034614;28;20199;-77
2023/04/28 09:56:33;;;;;;;3.77;2.70;;;;;;;13.68;43.14;94977.66;5030248;28;20630;-77
2023/04/28 09:59:01;;;;;;;5.10;2.77;;;;;;;13.93;43.93;94978.22;5031123;28;20194;-76
2023/04/28 10:01:33;;;;;;;5.37;2.77;;;;;;;14.03;41.67;94974.97;5030291;28;20210;-77
2023/04/28 10:04:01;;;;;;;6.07;2.70;;;;;;;13.86;40.18;94968.88;5032250;28;20191;-75
2023/04/28 10:06:30;;;;;;;4.27;2.50;;;;;;;13.80;40.59;94968.00;5029437;28;20198;-76
2023/04/28 10:09:01;;;;;;;8.50;2.53;;;;;;;13.95;40.66;94970.94;5028160;28;20309;-79
2023/04/28 10:11:29;;;;;;;7.73;2.97;;;;;;;14.19;41.44;94962.00;5035995;28;20206;-79
2023/04/28 10:13:57;;;;;;;3.70;2.63;;;;;;;14.56;40.47;94969.50;5032832;28;20214;-78
2023/04/28 10:16:26;;;;;;;3.27;2.47;;;;;;;14.75;39.88;94948.13;5030526;28;20618;-78
2023/04/28 10:18:56;;;;;;;6.50;2.77;;;;;;;15.06;39.51;94959.91;5027793;28;20187;-79
2023/04/28 10:21:29;;;;;;;4.97;3.33;;;;;;;15.33;39.54;94957.44;5038773;28;20321;-79
2023/04/28 10:24:08;;;;;;;6.50;2.43;;;;;;;15.63;38.88;94951.88;5034214;28;20191;-79
2023/04/28 10:27:08;;;;;;;4.50;2.60;;;;;;;15.80;38.43;94952.63;5035818;28;20229;-80
2023/04/28 10:29:36;;;;;;;5.60;2.63;;;;;;;15.87;36.96;94948.78;4946963;28;20213;-79
2023/04/28 10:32:21;;;;;;;5.33;2.53;;;;;;;16.20;35.52;94944.44;4949624;28;20205;-80
2023/04/28 10:34:48;;;;;;;6.90;2.50;;;;;;;16.21;35.36;94940.81;4995479;28;20306;-79
2023/04/28 10:37:17;;;;;;;3.80;2.33;;;;;;;16.35;36.16;94950.66;5031681;28;20210;-79
2023/04/28 10:40:17;;;;;;;4.50;2.50;;;;;;;16.55;35.24;94944.88;5033601;28;21041;-79
2023/04/28 10:42:53;;;;;;;7.20;3.13;;;;;;;16.90;33.36;94939.97;5011735;28;20206;-78
2023/04/28 10:45:54;;;;;;;4.33;2.60;;;;;;;17.09;33.22;94937.72;5028234;28;20649;-78
2023/04/28 10:48:23;;;;;;;8.03;2.90;;;;;;;17.30;34.35;94946.56;5019632;28;20564;-79
2023/04/28 10:51:23;;;;;;;7.07;2.20;;;;;;;17.53;34.34;94933.06;5029314;28;20191;-79
2023/04/28 10:54:22;;;;;;;3.60;2.40;;;;;;;17.65;33.83;94923.16;5031002;28;20195;-77
2023/04/28 10:57:21;;;;;;;4.07;2.60;;;;;;;17.73;32.92;94927.13;5033650;28;20214;-79
2023/04/28 10:59:51;;;;;;;4.50;2.50;;;;;;;17.57;33.22;94928.91;5027165;28;20191;-77
2023/04/28 11:02:40;;;;;;;4.13;2.90;;;;;;;17.22;33.15;94915.50;5031051;28;20600;-77
2023/04/28 11:05:13;;;;;;;3.83;2.60;;;;;;;17.20;33.10;94921.00;5027407;28;20221;-77
2023/04/28 11:07:40;;;;;;;3.87;2.23;;;;;;;17.24;32.30;94922.09;5030664;28;20206;-77
2023/04/28 11:10:08;;;;;;;6.73;2.33;;;;;;;17.50;31.60;94926.47;5032016;28;20214;-77
2023/04/28 11:12:34;;;;;;;5.50;2.50;;;;;;;17.71;31.92;94922.16;5026684;28;20217;-78
2023/04/28 11:15:12;;;;;;;7.33;2.50;;;;;;;17.85;32.00;94911.97;5032699;28;20194;-77
2023/04/28 11:17:41;;;;;;;3.93;2.23;;;;;;;17.99;32.08;94913.06;5027715;28;20203;-77
2023/04/28 11:20:12;;;;;;;4.43;2.30;;;;;;;17.96;30.86;94906.47;5027673;28;20187;-77
2023/04/28 11:22:47;;;;;;;4.57;2.20;;;;;;;18.06;31.06;94903.09;5030505;28;20202;-77
2023/04/28 11:25:13;;;;;;;6.75;2.55;;;;;;;17.84;30.20;94908.53;5031836;28;20228;-77
2023/04/28 11:27:40;;;;;;;4.00;2.30;;;;;;;17.90;30.05;94907.50;5032642;28;20206;-78
2023/04/28 11:30:21;;;;;;;3.50;2.60;;;;;;;17.63;30.42;94898.97;5030377;28;20665;-78
2023/04/28 11:32:50;;;;;;;5.22;2.45;;;;;;;17.71;32.25;94889.81;5033434;28;20199;-78
2023/04/28 11:35:17;;;;;;;4.00;2.63;;;;;;;17.82;31.29;94892.22;5029352;28;20210;-77
2023/04/28 11:37:45;;;;;;;3.28;2.38;;;;;;;18.06;31.71;94898.66;5032776;28;20206;-76
2023/04/28 11:40:13;;;;;;;5.00;2.58;;;;;;;18.26;30.96;94897.13;5032776;28;20236;-79
2023/04/28 11:42:47;;;;;;;4.82;2.75;;;;;;;18.42;30.45;94891.63;5033661;28;20213;-79
2023/04/28 11:45:14;;;;;;;5.95;3.00;;;;;;;18.56;31.51;94882.19;5031994;28;20217;-76
2023/04/28 11:47:41;;;;;;;4.80;2.40;;;;;;;18.64;30.13;94888.81;5036349;28;20199;-78